createdAt,value
2022-11-27T00:01:32.918Z,72.63
2022-11-27T00:03:59.803Z,69.43
2022-11-27T00:06:29.475Z,44.83
2022-11-27T00:08:58.413Z,46.20
2022-11-27T00:11:28.137Z,29.20
2022-11-27T00:13:55.434Z,57.33
2022-11-27T00:16:24.182Z,39.22
2022-11-27T00:18:51.845Z,84.95
2022-11-27T00:21:31.031Z,31.23
2022-11-27T00:24:02.059Z,37.78
2022-11-27T00:26:35.923Z,43.97
2022-11-27T00:29:04.490Z,46.33
2022-11-27T00:31:33.143Z,28.85
2022-11-27T00:34:03.204Z,42.63
2022-11-27T00:36:32.917Z,18.85
2022-11-27T00:39:00.025Z,19.95
2022-11-27T00:41:29.692Z,16.52
2022-11-27T00:43:57.644Z,18.40
2022-11-27T00:46:29.344Z,19.50
2022-11-27T00:48:58.412Z,14.75
2022-11-27T00:51:26.413Z,15.80
2022-11-27T00:53:53.894Z,24.15
2022-11-27T00:56:29.167Z,14.45
2022-11-27T00:58:56.841Z,12.57
2022-11-27T01:01:42.145Z,21.92
2022-11-27T01:04:15.952Z,15.18
2022-11-27T01:06:44.139Z,16.90
2022-11-27T01:09:13.163Z,13.82
2022-11-27T01:11:40.877Z,15.32
2022-11-27T01:14:15.290Z,15.05
2022-11-27T01:16:43.283Z,16.00
2022-11-27T01:19:12.954Z,49.28
2022-11-27T01:21:40.082Z,12.65
2022-11-27T01:24:07.825Z,21.15
2022-11-27T01:26:34.614Z,14.32
2022-11-27T01:29:01.742Z,17.42
2022-11-27T01:31:31.742Z,12.73
2022-11-27T01:34:06.262Z,16.45
2022-11-27T01:36:34.528Z,13.90
2022-11-27T01:39:02.538Z,17.58
2022-11-27T01:41:35.264Z,16.60
2022-11-27T01:44:24.999Z,19.13
2022-11-27T01:47:07.520Z,16.63
2022-11-27T01:49:37.090Z,16.48
2022-11-27T01:52:13.758Z,15.50
2022-11-27T01:55:01.990Z,16.80
2022-11-27T01:57:41.021Z,17.98
2022-11-27T02:00:13.002Z,16.13
2022-11-27T02:02:41.688Z,16.65
2022-11-27T02:05:11.150Z,18.40
2022-11-27T02:07:38.119Z,18.45
2022-11-27T02:10:06.323Z,17.83
2022-11-27T02:12:56.661Z,17.70
2022-11-27T02:15:57.231Z,16.15
2022-11-27T02:19:11.014Z,13.63
2022-11-27T02:21:55.603Z,17.85
2022-11-27T02:24:49.550Z,17.60
2022-11-27T02:27:29.272Z,20.65
2022-11-27T02:29:59.686Z,20.67
2022-11-27T02:32:36.216Z,20.35
2022-11-27T02:35:32.680Z,21.27
2022-11-27T02:38:09.742Z,21.10
2022-11-27T02:41:04.960Z,20.98
2022-11-27T02:43:38.861Z,22.33
2022-11-27T02:46:08.456Z,27.58
2022-11-27T02:48:41.918Z,25.05
2022-11-27T02:51:09.553Z,26.85
2022-11-27T02:53:44.963Z,20.60
2022-11-27T02:56:19.737Z,25.77
2022-11-27T02:58:48.358Z,21.73
2022-11-27T03:01:18.469Z,31.40
2022-11-27T03:03:51.001Z,21.70
2022-11-27T03:06:44.325Z,27.48
2022-11-27T03:09:37.453Z,25.27
2022-11-27T03:12:07.763Z,22.85
2022-11-27T03:14:36.638Z,28.83
2022-11-27T03:17:17.480Z,31.42
2022-11-27T03:20:15.891Z,22.65
2022-11-27T03:22:43.561Z,21.67
2022-11-27T03:25:10.622Z,21.25
2022-11-27T03:27:46.235Z,21.20
2022-11-27T03:30:14.185Z,22.67
2022-11-27T03:32:41.042Z,25.60
2022-11-27T03:35:11.536Z,24.52
2022-11-27T03:37:38.443Z,21.40
2022-11-27T03:40:07.311Z,17.88
2022-11-27T03:43:23.656Z,19.00
2022-11-27T03:46:01.456Z,15.80
2022-11-27T03:48:39.129Z,16.20
2022-11-27T03:51:20.201Z,17.15
2022-11-27T03:54:05.011Z,17.17
2022-11-27T03:57:01.222Z,16.50
2022-11-27T03:59:33.013Z,18.40
2022-11-27T04:01:59.946Z,16.58
2022-11-27T04:04:26.781Z,19.85
2022-11-27T04:06:53.573Z,19.70
2022-11-27T04:09:20.382Z,18.25
2022-11-27T04:11:47.303Z,13.75
2022-11-27T04:14:14.171Z,14.68
2022-11-27T04:16:41.005Z,17.05
2022-11-27T04:19:09.321Z,13.55
2022-11-27T04:21:36.150Z,13.73
2022-11-27T04:24:03.016Z,18.58
2022-11-27T04:26:29.859Z,17.77
2022-11-27T04:28:56.700Z,14.25
2022-11-27T04:31:23.687Z,14.00
2022-11-27T04:33:50.496Z,15.05
2022-11-27T04:36:17.382Z,14.77
2022-11-27T04:38:44.166Z,14.23
2022-11-27T04:41:10.988Z,17.77
2022-11-27T04:43:37.820Z,24.17
2022-11-27T04:46:04.723Z,15.48
2022-11-27T04:48:31.557Z,15.48
2022-11-27T04:50:58.376Z,16.85
2022-11-27T04:53:25.219Z,17.52
2022-11-27T04:55:52.733Z,17.63
2022-11-27T04:58:19.640Z,18.08
2022-11-27T05:00:46.498Z,19.13
2022-11-27T05:03:13.459Z,28.05
2022-11-27T05:05:40.261Z,20.65
2022-11-27T05:08:07.067Z,19.92
2022-11-27T05:10:33.905Z,22.20
2022-11-27T05:13:00.663Z,15.38
2022-11-27T05:15:27.546Z,25.08
2022-11-27T05:17:54.330Z,17.73
2022-11-27T05:20:21.103Z,14.15
2022-11-27T05:22:49.592Z,9.95
2022-11-27T05:25:16.492Z,6.80
2022-11-27T05:27:43.327Z,10.27
2022-11-27T05:30:10.516Z,8.75
2022-11-27T05:32:37.637Z,6.70
2022-11-27T05:35:04.722Z,9.48
2022-11-27T05:37:31.578Z,7.57
2022-11-27T05:39:58.931Z,9.18
2022-11-27T05:42:25.704Z,8.02
2022-11-27T05:44:57.854Z,9.50
2022-11-27T05:47:25.148Z,7.10
2022-11-27T05:49:52.028Z,5.90
2022-11-27T05:52:18.832Z,6.80
2022-11-27T05:54:45.623Z,7.32
2022-11-27T05:57:12.420Z,7.07
2022-11-27T05:59:39.188Z,8.32
2022-11-27T06:02:06.046Z,5.97
2022-11-27T06:04:34.769Z,8.07
2022-11-27T06:07:01.595Z,8.70
2022-11-27T06:09:28.393Z,7.40
2022-11-27T06:11:55.199Z,9.20
2022-11-27T06:14:22.155Z,8.05
2022-11-27T06:16:51.092Z,7.30
2022-11-27T06:19:17.959Z,7.20
2022-11-27T06:21:46.455Z,7.35
2022-11-27T06:24:13.354Z,9.05
2022-11-27T06:26:40.236Z,7.57
2022-11-27T06:29:07.036Z,7.25
2022-11-27T06:31:34.345Z,9.05
2022-11-27T06:34:01.990Z,7.53
2022-11-27T06:36:36.181Z,7.75
2022-11-27T06:39:05.835Z,9.18
2022-11-27T06:41:33.326Z,17.15
2022-11-27T06:44:01.849Z,8.80
2022-11-27T06:46:30.146Z,9.77
2022-11-27T06:48:58.269Z,8.68
2022-11-27T06:51:28.326Z,10.45
2022-11-27T06:53:55.568Z,9.02
2022-11-27T06:56:25.816Z,12.32
2022-11-27T06:59:01.055Z,8.38
2022-11-27T07:01:30.998Z,8.75
2022-11-27T07:03:58.480Z,8.35
2022-11-27T07:06:26.872Z,9.35
2022-11-27T07:08:55.009Z,9.70
2022-11-27T07:11:26.151Z,14.30
2022-11-27T07:13:57.058Z,15.27
2022-11-27T07:16:25.045Z,8.25
2022-11-27T07:18:55.874Z,11.48
2022-11-27T07:21:22.816Z,12.35
2022-11-27T07:23:49.834Z,8.38
2022-11-27T07:26:21.366Z,15.73
2022-11-27T07:28:48.915Z,9.73
2022-11-27T07:31:21.035Z,11.80
2022-11-27T07:33:48.165Z,12.80
2022-11-27T07:36:19.205Z,8.70
2022-11-27T07:38:46.553Z,10.77
2022-11-27T07:41:14.025Z,9.40
2022-11-27T07:43:43.022Z,9.25
2022-11-27T07:46:18.402Z,12.10
2022-11-27T07:48:45.620Z,13.52
2022-11-27T07:51:16.532Z,22.95
2022-11-27T07:53:43.719Z,23.45
2022-11-27T07:56:13.907Z,35.28
2022-11-27T07:58:41.006Z,13.70
2022-11-27T08:01:11.487Z,13.18
2022-11-27T08:03:38.705Z,12.82
2022-11-27T08:06:14.841Z,20.38
2022-11-27T08:08:41.636Z,14.10
2022-11-27T08:11:29.860Z,14.07
2022-11-27T08:14:06.029Z,10.55
2022-11-27T08:16:35.491Z,13.27
2022-11-27T08:19:02.525Z,15.57
2022-11-27T08:21:30.316Z,16.33
2022-11-27T08:23:58.082Z,15.23
2022-11-27T08:26:27.475Z,12.63
2022-11-27T08:28:54.735Z,16.38
2022-11-27T08:31:22.467Z,12.63
2022-11-27T08:33:49.668Z,13.18
2022-11-27T08:36:18.428Z,12.43
2022-11-27T08:38:46.532Z,13.32
2022-11-27T08:41:13.577Z,12.48
2022-11-27T08:43:40.381Z,10.65
2022-11-27T08:46:07.891Z,19.27
2022-11-27T08:48:35.595Z,11.23
2022-11-27T08:51:08.334Z,12.95
2022-11-27T08:53:37.453Z,13.55
2022-11-27T08:56:16.884Z,13.82
2022-11-27T08:58:44.555Z,17.50
2022-11-27T09:01:21.101Z,13.27
2022-11-27T09:03:48.673Z,13.75
2022-11-27T09:06:28.641Z,15.60
2022-11-27T09:09:01.425Z,10.15
2022-11-27T09:11:31.061Z,10.95
2022-11-27T09:14:00.562Z,10.38
2022-11-27T09:16:29.013Z,11.50
2022-11-27T09:18:57.254Z,11.07
2022-11-27T09:21:27.163Z,12.85
2022-11-27T09:23:55.899Z,14.60
2022-11-27T09:26:25.879Z,12.90
2022-11-27T09:28:54.658Z,12.95
2022-11-27T09:31:23.020Z,10.85
2022-11-27T09:33:50.431Z,11.10
2022-11-27T09:36:21.780Z,12.00
2022-11-27T09:38:48.857Z,12.20
2022-11-27T09:41:44.587Z,13.23
2022-11-27T09:44:32.419Z,11.38
2022-11-27T09:47:07.542Z,19.15
2022-11-27T09:49:43.471Z,15.93
2022-11-27T09:52:40.855Z,13.18
2022-11-27T09:55:14.764Z,11.35
2022-11-27T09:57:42.230Z,12.18
2022-11-27T10:00:18.382Z,15.55
2022-11-27T10:02:45.427Z,11.90
2022-11-27T10:05:24.731Z,13.95
2022-11-27T10:08:24.365Z,15.73
2022-11-27T10:11:11.221Z,14.98
2022-11-27T10:14:02.978Z,14.18
2022-11-27T10:16:44.382Z,14.07
2022-11-27T10:19:26.337Z,15.40
2022-11-27T10:22:28.753Z,13.30
2022-11-27T10:25:20.588Z,14.18
2022-11-27T10:28:18.121Z,13.07
2022-11-27T10:31:09.106Z,16.08
2022-11-27T10:33:45.377Z,12.70
2022-11-27T10:36:15.832Z,16.35
2022-11-27T10:38:44.985Z,14.82
2022-11-27T10:44:39.320Z,14.82
2022-11-27T10:47:10.794Z,12.38
2022-11-27T10:49:40.946Z,16.40
2022-11-27T10:52:18.358Z,29.83
2022-11-27T10:55:04.914Z,15.95
2022-11-27T10:58:08.727Z,17.35
2022-11-27T11:00:35.659Z,12.82
2022-11-27T11:03:05.903Z,15.93
2022-11-27T11:05:50.910Z,14.98
2022-11-27T11:08:22.167Z,14.13
2022-11-27T11:11:25.497Z,16.15
2022-11-27T11:13:52.822Z,11.45
2022-11-27T11:16:29.412Z,14.43
2022-11-27T11:19:00.965Z,12.20
2022-11-27T11:21:42.457Z,13.20
2022-11-27T11:24:30.189Z,15.20
2022-11-27T11:27:06.141Z,20.58
2022-11-27T11:29:55.224Z,13.93
2022-11-27T11:32:49.346Z,15.93
2022-11-27T11:35:32.686Z,11.00
2022-11-27T11:40:30.476Z,14.57
2022-11-27T11:43:04.310Z,12.13
2022-11-27T11:45:34.184Z,11.95
2022-11-27T11:48:15.989Z,11.98
2022-11-27T11:50:49.479Z,11.82
2022-11-27T11:53:34.351Z,11.13
2022-11-27T11:56:33.120Z,11.43
2022-11-27T11:59:42.105Z,12.10
2022-11-27T12:02:48.955Z,10.63
2022-11-27T12:05:35.042Z,16.95
2022-11-27T12:08:23.804Z,12.57
2022-11-27T12:11:09.028Z,10.50
2022-11-27T12:14:15.035Z,11.90
2022-11-27T12:17:02.738Z,10.10
2022-11-27T12:20:05.699Z,10.63
2022-11-27T12:23:16.731Z,11.17
2022-11-27T12:26:18.456Z,10.43
2022-11-27T12:29:35.892Z,14.57
2022-11-27T12:32:08.458Z,10.93
2022-11-27T12:35:14.742Z,10.95
2022-11-27T12:37:54.903Z,11.27
2022-11-27T12:40:56.107Z,11.45
2022-11-27T12:43:46.339Z,14.60
2022-11-27T12:46:28.836Z,11.98
2022-11-27T12:49:06.024Z,12.60
2022-11-27T12:51:42.897Z,13.23
2022-11-27T12:54:24.109Z,15.32
2022-11-27T12:57:00.693Z,11.45
2022-11-27T12:59:33.588Z,13.88
2022-11-27T13:02:24.456Z,16.90
2022-11-27T13:05:16.994Z,17.27
2022-11-27T13:07:49.195Z,19.05
2022-11-27T13:10:31.302Z,18.70
2022-11-27T13:13:14.035Z,14.70
2022-11-27T13:15:54.988Z,14.85
2022-11-27T13:18:30.979Z,14.32
2022-11-27T13:21:02.606Z,18.58
2022-11-27T13:23:33.679Z,18.75
2022-11-27T13:26:06.220Z,15.38
2022-11-27T13:28:40.828Z,12.32
2022-11-27T13:31:09.685Z,15.32
2022-11-27T13:33:41.346Z,13.90
2022-11-27T13:36:23.849Z,17.67
2022-11-27T13:39:00.290Z,17.58
2022-11-27T13:41:40.107Z,20.83
2022-11-27T13:44:28.926Z,18.85
2022-11-27T13:47:04.846Z,19.25
2022-11-27T13:49:37.674Z,19.13
2022-11-27T13:52:14.488Z,18.75
2022-11-27T13:54:59.293Z,29.48
2022-11-27T13:57:28.407Z,26.98
2022-11-27T14:00:01.016Z,17.13
2022-11-27T14:02:51.621Z,16.25
2022-11-27T14:05:35.669Z,17.60
2022-11-27T14:08:02.980Z,43.42
2022-11-27T14:10:32.642Z,25.95
2022-11-27T14:13:08.751Z,25.52
2022-11-27T14:15:39.389Z,21.42
2022-11-27T14:18:21.536Z,18.08
2022-11-27T14:21:02.689Z,17.65
2022-11-27T14:23:31.702Z,19.63
2022-11-27T14:26:15.791Z,20.23
2022-11-27T14:28:46.137Z,22.30
2022-11-27T14:31:35.689Z,25.48
2022-11-27T14:34:24.301Z,24.42
2022-11-27T14:36:52.893Z,20.25
2022-11-27T14:39:29.368Z,20.98
2022-11-27T14:42:08.194Z,21.67
2022-11-27T14:44:35.304Z,22.42
2022-11-27T14:47:05.686Z,25.63
2022-11-27T14:49:33.927Z,19.85
2022-11-27T14:52:05.837Z,17.27
2022-11-27T14:54:37.349Z,22.52
2022-11-27T14:57:06.063Z,21.67
2022-11-27T14:59:33.117Z,16.15
2022-11-27T15:02:11.403Z,16.50
2022-11-27T15:04:40.922Z,17.58
2022-11-27T15:07:22.817Z,21.67
2022-11-27T15:09:53.185Z,21.63
2022-11-27T15:12:33.873Z,19.25
2022-11-27T15:15:06.834Z,23.42
2022-11-27T15:20:15.088Z,21.85
2022-11-27T15:22:54.560Z,33.28
2022-11-27T15:25:36.787Z,52.70
2022-11-27T15:28:35.243Z,74.22
2022-11-27T15:31:22.507Z,26.88
2022-11-27T15:34:23.600Z,20.48
2022-11-27T15:37:06.766Z,21.98
2022-11-27T15:39:54.018Z,19.27
2022-11-27T15:42:21.937Z,19.95
2022-11-27T15:44:53.476Z,19.48
2022-11-27T15:47:32.003Z,20.90
2022-11-27T15:49:59.627Z,17.80
2022-11-27T15:52:27.506Z,23.65
2022-11-27T15:54:56.513Z,17.15
2022-11-27T15:57:24.274Z,16.52
2022-11-27T15:59:51.076Z,25.00
2022-11-27T16:02:19.126Z,18.60
2022-11-27T16:04:45.956Z,29.90
2022-11-27T16:07:12.792Z,29.95
2022-11-27T16:09:40.076Z,23.27
2022-11-27T16:12:07.166Z,28.67
2022-11-27T16:14:33.951Z,17.83
2022-11-27T16:17:01.431Z,22.23
2022-11-27T16:19:28.651Z,21.67
2022-11-27T16:21:56.702Z,17.90
2022-11-27T16:24:23.617Z,18.58
2022-11-27T16:26:50.367Z,18.30
2022-11-27T16:29:17.148Z,20.10
2022-11-27T16:31:44.026Z,19.98
2022-11-27T16:34:10.844Z,16.67
2022-11-27T16:36:40.775Z,17.02
2022-11-27T16:39:07.796Z,17.08
2022-11-27T16:41:34.649Z,18.95
2022-11-27T16:44:01.450Z,18.65
2022-11-27T16:46:30.736Z,20.88
2022-11-27T16:48:58.980Z,40.67
2022-11-27T16:51:29.185Z,47.30
2022-11-27T16:53:58.422Z,26.13
2022-11-27T16:56:27.499Z,25.25
2022-11-27T16:59:00.978Z,31.20
2022-11-27T17:01:34.651Z,31.20
2022-11-27T17:04:08.857Z,20.55
2022-11-27T17:06:38.015Z,40.67
2022-11-27T17:09:07.139Z,32.30
2022-11-27T17:11:37.008Z,33.17
2022-11-27T17:14:07.753Z,49.97
2022-11-27T17:16:39.951Z,28.42
2022-11-27T17:19:07.569Z,20.95
2022-11-27T17:21:35.667Z,34.50
2022-11-27T17:24:11.620Z,72.00
2022-11-27T17:26:44.843Z,71.93
2022-11-27T17:29:14.167Z,79.82
2022-11-27T17:31:41.207Z,51.85
2022-11-27T17:34:15.112Z,44.08
2022-11-27T17:36:43.204Z,42.22
2022-11-27T17:39:14.704Z,51.25
2022-11-27T17:41:44.752Z,48.90
2022-11-27T17:44:12.549Z,59.97
2022-11-27T17:46:39.994Z,81.13
2022-11-27T17:49:08.036Z,45.35
2022-11-27T17:51:37.497Z,49.63
2022-11-27T17:54:05.944Z,46.72
2022-11-27T17:56:34.620Z,66.18
2022-11-27T17:59:01.452Z,57.95
2022-11-27T18:01:29.549Z,60.20
2022-11-27T18:04:00.359Z,44.63
2022-11-27T18:06:27.652Z,36.42
2022-11-27T18:08:56.508Z,69.95
2022-11-27T18:11:26.521Z,61.13
2022-11-27T18:13:54.151Z,75.15
2022-11-27T18:16:29.172Z,44.35
2022-11-27T18:19:00.957Z,60.78
2022-11-27T18:21:28.665Z,50.92
2022-11-27T18:27:07.036Z,78.10
2022-11-27T18:29:30.057Z,53.17
2022-11-27T18:31:56.941Z,53.10
2022-11-27T18:34:23.995Z,51.03
2022-11-27T18:36:50.805Z,36.13
2022-11-27T18:39:17.681Z,33.47
2022-11-27T18:41:44.457Z,60.55
2022-11-27T18:44:11.274Z,28.15
2022-11-27T18:46:38.292Z,32.67
2022-11-27T18:49:05.490Z,33.60
2022-11-27T18:51:32.466Z,25.17
2022-11-27T18:53:59.395Z,28.65
2022-11-27T18:56:31.205Z,29.63
2022-11-27T18:59:03.907Z,35.17
2022-11-27T19:01:38.149Z,30.50
2022-11-27T19:04:08.275Z,34.70
2022-11-27T19:06:36.818Z,33.33
2022-11-27T19:09:04.562Z,24.27
2022-11-27T19:11:32.628Z,40.60
2022-11-27T19:13:59.862Z,31.92
2022-11-27T19:16:31.232Z,23.20
2022-11-27T19:18:59.480Z,31.83
2022-11-27T19:21:29.046Z,29.33
2022-11-27T19:23:58.735Z,43.05
2022-11-27T19:26:32.505Z,23.02
2022-11-27T19:29:05.616Z,23.50
2022-11-27T19:31:33.298Z,18.88
2022-11-27T19:34:02.813Z,20.60
2022-11-27T19:36:31.882Z,22.58
2022-11-27T19:39:03.414Z,18.38
2022-11-27T19:41:30.500Z,16.23
2022-11-27T19:43:57.365Z,23.30
2022-11-27T19:46:31.932Z,19.38
2022-11-27T19:49:02.500Z,16.95
2022-11-27T19:51:34.431Z,22.65
2022-11-27T19:54:08.401Z,20.25
2022-11-27T19:56:40.133Z,18.67
2022-11-27T19:59:07.844Z,16.38
2022-11-27T20:01:35.502Z,20.40
2022-11-27T20:04:03.831Z,20.33
2022-11-27T20:06:31.146Z,20.83
2022-11-27T20:09:27.474Z,27.30
2022-11-27T20:11:54.761Z,29.80
2022-11-27T20:14:21.590Z,26.63
2022-11-27T20:16:48.457Z,24.48
2022-11-27T20:19:15.851Z,29.98
2022-11-27T20:21:42.756Z,28.83
2022-11-27T20:24:09.627Z,31.75
2022-11-27T20:26:42.348Z,30.27
2022-11-27T20:29:12.254Z,32.92
2022-11-27T20:31:41.815Z,25.13
2022-11-27T20:34:09.251Z,22.08
2022-11-27T20:36:39.338Z,25.73
2022-11-27T20:39:06.290Z,23.70
2022-11-27T20:41:35.891Z,21.83
2022-11-27T20:44:05.008Z,24.75
2022-11-27T20:46:34.123Z,20.58
2022-11-27T20:49:01.177Z,20.90
2022-11-27T20:51:33.370Z,22.60
2022-11-27T20:54:02.313Z,19.08
2022-11-27T20:56:30.898Z,20.75
2022-11-27T20:58:59.507Z,27.42
2022-11-27T21:01:30.752Z,21.50
2022-11-27T21:04:00.592Z,21.23
2022-11-27T21:06:30.719Z,19.58
2022-11-27T21:09:03.454Z,27.27
2022-11-27T21:11:32.135Z,16.15
2022-11-27T21:14:03.228Z,34.95
2022-11-27T21:16:35.141Z,28.23
2022-11-27T21:19:06.500Z,22.35
2022-11-27T21:21:34.620Z,28.77
2022-11-27T21:24:01.708Z,23.00
2022-11-27T21:26:28.942Z,31.17
2022-11-27T21:28:55.799Z,31.98
2022-11-27T21:31:26.029Z,28.92
2022-11-27T21:34:00.442Z,27.88
2022-11-27T21:36:31.698Z,29.30
2022-11-27T21:39:00.586Z,25.00
2022-11-27T21:41:29.692Z,26.13
2022-11-27T21:44:00.988Z,25.60
2022-11-27T21:46:28.827Z,26.02
2022-11-27T21:48:59.160Z,31.85
2022-11-27T21:51:29.310Z,28.35
2022-11-27T21:53:58.568Z,23.25
2022-11-27T21:56:27.862Z,27.85
2022-11-27T21:58:54.918Z,28.35
2022-11-27T22:01:24.811Z,25.73
2022-11-27T22:03:56.588Z,26.80
2022-11-27T22:06:27.087Z,23.45
2022-11-27T22:08:57.562Z,29.23
2022-11-27T22:11:33.092Z,25.60
2022-11-27T22:14:04.538Z,24.17
2022-11-27T22:16:42.931Z,23.08
2022-11-27T22:19:12.332Z,27.52
2022-11-27T22:21:39.123Z,28.80
2022-11-27T22:24:07.526Z,23.33
2022-11-27T22:26:34.357Z,23.48
2022-11-27T22:29:01.192Z,23.98
2022-11-27T22:31:34.074Z,20.65
2022-11-27T22:34:01.665Z,21.38
2022-11-27T22:36:31.962Z,23.25
2022-11-27T22:39:02.190Z,22.70
2022-11-27T22:41:31.609Z,24.02
2022-11-27T22:44:00.243Z,17.48
2022-11-27T22:46:33.819Z,23.88
2022-11-27T22:49:04.041Z,23.90
2022-11-27T22:51:33.973Z,24.70
2022-11-27T22:54:06.319Z,22.20
2022-11-27T22:56:33.795Z,19.83
2022-11-27T22:59:30.698Z,24.77
2022-11-27T23:01:48.702Z,20.70
2022-11-27T23:04:15.827Z,21.15
2022-11-27T23:06:47.317Z,17.08
2022-11-27T23:09:16.037Z,22.83
2022-11-27T23:11:42.833Z,20.13
2022-11-27T23:14:09.641Z,21.17
2022-11-27T23:16:36.619Z,19.25
2022-11-27T23:19:03.718Z,19.58
2022-11-27T23:21:30.608Z,19.40
2022-11-27T23:23:57.389Z,18.30
2022-11-27T23:26:24.491Z,22.20
2022-11-27T23:28:53.520Z,19.13
2022-11-27T23:31:30.432Z,18.80
2022-11-27T23:34:01.589Z,18.23
2022-11-27T23:36:29.574Z,17.77
2022-11-27T23:38:56.572Z,18.67
2022-11-27T23:41:24.968Z,18.63
2022-11-27T23:43:53.873Z,18.10
2022-11-27T23:46:26.310Z,17.88
2022-11-27T23:48:59.743Z,16.50
2022-11-27T23:51:30.695Z,19.08
2022-11-27T23:53:58.327Z,18.55
2022-11-27T23:56:29.738Z,18.70
2022-11-27T23:58:57.785Z,18.70
